Gunter Afs, AL (36114)

19:14 CDT le 25 octobre 2014 (GMT -0500)
Forest Hills | Change Station
CLOSE
Current Station
Stations météorologiques personnelles
Location: Montgomery, AL
Altitude: 223 ft
Stations météo à proximité

Alt. 223 ft 32.38 °N, 86.26 °W | Updated 1 second ago

Ciel dégagé
Ciel dégagé
64.7 ° F
Paraît 64.7 ° F
N
0.0
Vent Variable Vent de NNO
Gusts 0.0 mph

Aujourd'hui
Haut(e) -- | Bas -- ° F
--% Risque de précip.
Hier
Haut(e) -- | Bas -- ° F
Precip. -- pouce
6:56 AM 6:01 PM
Lune montante, 5% visible
Pression 30.05 pouce
Visibilité 10.0 Miles terrestres
Nuages Ciel dégagé
Point de rosée 55 ° F
Humidité 71%
Précipitations 0.00 pouce
Profondeur de la couche neigeuse Non disponible.
UV 0 sur 12
Pollen 2.30 sur 12
Qualité de l'air Non disponible.
Flu Activity Sporadic
METAR KMXF 252358Z AUTO 32001KT 10SM CLR 18/13 A3004 RMK AO2 SLP175 T01810133 10258 20181 51003

More Conditions Fewer Conditions

Pression 30.05 pouce
Visibilité 10.0 Miles terrestres
Nuages Ciel dégagé
Point de rosée 55 ° F
Humidité 71%
Précipitations 0.00 pouce
Profondeur de la couche neigeuse Non disponible.
UV 0 sur 12
Pollen 2.30 sur 12
Qualité de l'air Non disponible.
Flu Activity Sporadic
METAR KMXF 252358Z AUTO 32001KT 10SM CLR 18/13 A3004 RMK AO2 SLP175 T01810133 10258 20181 51003

More Conditions Fewer Conditions

10-Day Weather Forecast

Almanac

Astronomie

Oct. 25, 2014 Lever Coucher
Temps réel 06:56 CDT 18:01 CDT
Crépuscule civil 06:31 CDT 18:26 CDT
Crépuscule nautique 06:02 CDT 18:55 CDT
Crépuscule astronomique 05:34 CDT 19:23 CDT
Lune 08:30 CDT (10/25) 19:28 CDT (10/25)
Durée de lumière visible 11h 54m
Longueur du jour
11h 04m
Tomorrow will be 1m 49s shorter.
Lune montante, 5% of the Moon is Illuminated
Aujourd'hui
Lune montante
Oct 30
Premier quartier
Nov 6
Pleine lune
Nov 14
Dernier quartier
Nov 22
Nouveau

Extrêmes aujourd'hui

State Highs State Lows

Community

WunderPhotos

Upload Photos

1,765,039 Photos téléchargées !

Nearby

Épaisseur de neige

Station Depth Altitude
Pas de nouvelles chutes de neige

Activité sismique

Ville Distance Mag. Time & Date
No recent earthquake activity has been reported nearby.
Minimum magnitude displayed is 2.5.

Températures des eaux côtières

Lieu Température
Aucun rapport de station

Stations météo à proximité